createdAt,value
2022-11-28T06:06:42.695Z,6.03
2022-11-28T06:12:22.465Z,6.05
2022-11-28T06:14:49.421Z,5.10
2022-11-28T06:17:16.353Z,5.28
2022-11-28T06:42:31.039Z,4.60
2022-11-28T06:51:30.789Z,4.78
2022-11-28T07:37:03.949Z,5.18
2022-11-28T07:39:30.907Z,5.25
2022-11-28T07:41:57.922Z,5.35
2022-11-28T07:44:25.119Z,6.35
2022-11-28T07:49:58.908Z,6.18
2022-11-28T07:52:25.833Z,6.15
2022-11-28T07:54:52.796Z,6.53
2022-11-28T07:57:20.014Z,4.97
2022-11-28T07:59:46.994Z,6.82
2022-11-28T08:02:14.107Z,6.57
2022-11-28T08:04:47.072Z,6.53
2022-11-28T08:07:16.461Z,6.53
2022-11-28T08:09:43.748Z,7.00
2022-11-28T08:12:14.508Z,7.22
2022-11-28T08:14:42.227Z,6.57
2022-11-28T08:17:09.695Z,6.80
2022-11-28T08:19:36.652Z,6.22
2022-11-28T08:22:03.652Z,7.22
2022-11-28T08:24:30.692Z,8.18
2022-11-28T08:26:57.631Z,6.97
2022-11-28T08:29:24.634Z,6.35
2022-11-28T08:31:53.130Z,7.55
2022-11-28T08:38:01.750Z,6.07
2022-11-28T08:43:59.856Z,6.95
2022-11-28T08:46:26.930Z,8.35
2022-11-28T08:48:53.904Z,8.82
2022-11-28T08:51:26.366Z,7.97
2022-11-28T08:53:59.062Z,7.97
2022-11-28T08:56:26.882Z,7.22
2022-11-28T08:58:54.521Z,8.02
2022-11-28T09:01:24.926Z,7.35
2022-11-28T09:03:53.388Z,6.82
2022-11-28T09:06:22.126Z,6.38
2022-11-28T09:08:50.454Z,6.88
2022-11-28T09:11:20.677Z,7.10
2022-11-28T09:13:47.723Z,7.22
2022-11-28T09:16:16.408Z,7.32
2022-11-28T09:18:43.602Z,7.28
2022-11-28T09:21:14.245Z,7.13
2022-11-28T09:23:43.690Z,7.70
2022-11-28T09:26:17.008Z,7.30
2022-11-28T09:28:45.141Z,7.75
2022-11-28T09:31:14.734Z,7.03
2022-11-28T09:33:42.035Z,6.78
2022-11-28T09:36:21.665Z,7.65
2022-11-28T09:38:49.018Z,6.85
2022-11-28T09:41:40.330Z,6.43
2022-11-28T09:44:21.686Z,7.05
2022-11-28T09:46:52.308Z,5.85
2022-11-28T09:49:40.607Z,5.63
2022-11-28T09:52:50.191Z,6.10
2022-11-28T09:55:26.677Z,6.88
2022-11-28T09:57:54.851Z,6.55
2022-11-28T10:00:29.328Z,5.22
2022-11-28T10:03:14.944Z,5.85
2022-11-28T10:06:14.320Z,4.60
2022-11-28T10:09:13.790Z,5.97
2022-11-28T10:11:58.658Z,6.25
2022-11-28T10:14:46.656Z,5.72
2022-11-28T10:17:37.384Z,5.30
2022-11-28T10:20:12.192Z,5.95
2022-11-28T10:23:29.840Z,5.80
2022-11-28T10:26:06.252Z,5.25
2022-11-28T10:28:37.693Z,5.85
2022-11-28T10:31:16.937Z,5.07
2022-11-28T10:34:00.282Z,5.05
2022-11-28T10:36:34.620Z,5.88
2022-11-28T10:39:11.372Z,5.22
2022-11-28T10:42:09.382Z,5.80
2022-11-28T10:44:58.215Z,5.15
2022-11-28T10:48:37.088Z,5.53
2022-11-28T10:51:06.221Z,4.90
2022-11-28T10:53:56.145Z,5.32
2022-11-28T10:56:58.121Z,6.05
2022-11-28T11:00:03.129Z,5.10
2022-11-28T11:02:55.005Z,5.93
2022-11-28T11:05:27.637Z,6.47
2022-11-28T11:08:00.562Z,7.50
2022-11-28T11:10:40.042Z,6.28
2022-11-28T11:13:22.168Z,7.22
2022-11-28T11:16:04.309Z,6.95
2022-11-28T11:18:36.423Z,7.72
2022-11-28T11:21:26.250Z,7.15
2022-11-28T11:24:17.537Z,7.75
2022-11-28T11:26:49.173Z,7.65
2022-11-28T11:29:54.466Z,7.35
2022-11-28T11:32:30.431Z,7.60
2022-11-28T11:37:36.051Z,7.43
2022-11-28T11:40:20.728Z,7.82
2022-11-28T11:43:00.228Z,7.95
2022-11-28T11:45:35.199Z,7.57
2022-11-28T11:48:04.478Z,8.57
2022-11-28T11:50:33.556Z,10.10
2022-11-28T11:53:13.852Z,10.13
2022-11-28T11:55:54.614Z,10.10
2022-11-28T11:58:32.633Z,8.73
2022-11-28T12:01:01.420Z,9.55
2022-11-28T12:04:17.882Z,10.95
2022-11-28T12:06:53.539Z,10.40
2022-11-28T12:09:39.568Z,10.07
2022-11-28T12:12:24.659Z,10.55
2022-11-28T12:14:52.718Z,10.27
2022-11-28T12:17:55.759Z,10.57
2022-11-28T12:20:42.838Z,11.68
2022-11-28T12:23:33.914Z,11.38
2022-11-28T12:26:27.580Z,9.57
2022-11-28T12:29:12.637Z,11.00
2022-11-28T12:32:00.271Z,11.18
2022-11-28T12:35:01.420Z,12.40
2022-11-28T12:38:16.599Z,11.57
2022-11-28T12:41:09.460Z,10.82
2022-11-28T12:44:20.154Z,11.25
2022-11-28T12:46:54.796Z,11.70
2022-11-28T12:50:08.749Z,11.55
2022-11-28T12:53:34.367Z,9.55
2022-11-28T12:56:16.190Z,10.07
2022-11-28T12:59:04.339Z,12.15
2022-11-28T13:02:22.256Z,10.95
2022-11-28T13:05:13.696Z,11.30
2022-11-28T13:08:22.718Z,11.02
2022-11-28T13:11:20.712Z,10.98
2022-11-28T13:13:56.455Z,8.80
2022-11-28T13:20:29.721Z,9.07
2022-11-28T13:23:28.742Z,8.80
2022-11-28T13:26:18.570Z,9.55
2022-11-28T13:29:00.386Z,8.35
2022-11-28T13:31:42.413Z,9.65
2022-11-28T13:34:16.616Z,9.95
2022-11-28T13:40:12.581Z,7.97
2022-11-28T13:43:04.356Z,8.35
2022-11-28T13:45:42.120Z,8.18
2022-11-28T13:48:57.577Z,7.50
2022-11-28T13:51:31.423Z,8.90
2022-11-28T13:54:17.587Z,7.40
2022-11-28T13:57:03.112Z,8.18
2022-11-28T13:59:31.095Z,8.10
2022-11-28T14:02:03.935Z,8.43
2022-11-28T14:04:32.955Z,8.75
2022-11-28T14:07:06.810Z,8.73
2022-11-28T14:10:09.807Z,8.95
2022-11-28T14:12:53.428Z,10.38
2022-11-28T14:15:29.515Z,10.60
2022-11-28T14:18:56.386Z,12.43
2022-11-28T14:21:57.980Z,13.40
2022-11-28T14:24:59.822Z,11.30
2022-11-28T14:27:33.573Z,12.85
2022-11-28T14:30:02.055Z,12.88
2022-11-28T14:32:39.986Z,13.77
2022-11-28T14:35:37.766Z,14.52
2022-11-28T14:38:30.539Z,12.70
2022-11-28T14:41:06.821Z,14.57
2022-11-28T14:43:48.040Z,13.17
2022-11-28T14:46:29.569Z,13.57
2022-11-28T14:48:58.534Z,14.93
2022-11-28T14:51:44.296Z,13.40
2022-11-28T14:54:21.032Z,14.27
2022-11-28T14:56:56.750Z,14.27
2022-11-28T14:59:35.038Z,14.60
2022-11-28T15:02:03.646Z,13.93
2022-11-28T15:05:14.283Z,15.43
2022-11-28T15:08:13.748Z,15.30
2022-11-28T15:11:13.645Z,15.80
2022-11-28T15:14:14.112Z,15.48
2022-11-28T15:16:50.132Z,15.93
2022-11-28T15:19:34.644Z,15.85
2022-11-28T15:22:01.807Z,15.02
2022-11-28T15:24:38.227Z,16.70
2022-11-28T15:27:08.416Z,14.55
2022-11-28T15:29:36.735Z,16.45
2022-11-28T15:32:04.830Z,16.73
2022-11-28T15:34:34.825Z,17.67
2022-11-28T15:37:07.571Z,16.48
2022-11-28T15:39:40.065Z,16.13
2022-11-28T15:42:19.666Z,18.55
2022-11-28T15:44:47.058Z,19.10
2022-11-28T15:47:21.274Z,18.00
2022-11-28T15:50:17.072Z,16.42
2022-11-28T15:52:59.529Z,17.38
2022-11-28T15:55:31.513Z,20.80
2022-11-28T15:58:17.647Z,17.83
2022-11-28T16:00:50.799Z,17.75
2022-11-28T16:03:24.900Z,19.35
2022-11-28T16:05:55.148Z,20.77
2022-11-28T16:08:40.560Z,18.85
2022-11-28T16:11:10.401Z,22.00
2022-11-28T16:13:40.819Z,23.48
2022-11-28T16:16:35.445Z,21.77
2022-11-28T16:19:09.147Z,20.08
2022-11-28T16:22:09.904Z,18.42
2022-11-28T16:24:55.587Z,25.15
2022-11-28T16:27:42.230Z,23.52
2022-11-28T16:30:27.861Z,21.65
2022-11-28T16:32:56.555Z,23.52
2022-11-28T16:35:40.562Z,23.33
2022-11-28T16:38:21.739Z,19.10
2022-11-28T16:40:49.762Z,16.95
2022-11-28T16:43:34.230Z,16.88
2022-11-28T16:46:06.367Z,16.85
2022-11-28T16:48:47.670Z,22.85
2022-11-28T16:51:29.038Z,18.58
2022-11-28T16:53:59.538Z,19.73
2022-11-28T16:56:32.314Z,19.38
2022-11-28T16:59:14.819Z,18.27
2022-11-28T17:01:45.652Z,18.00
2022-11-28T17:04:30.286Z,19.15
2022-11-28T17:07:05.099Z,17.63
2022-11-28T17:09:33.867Z,18.10
2022-11-28T17:12:08.215Z,17.85
2022-11-28T17:14:35.219Z,14.27
2022-11-28T17:17:02.067Z,18.35
2022-11-28T17:19:29.152Z,16.77
2022-11-28T17:21:59.679Z,17.23
2022-11-28T17:24:32.778Z,18.20
2022-11-28T17:26:59.853Z,20.73
2022-11-28T17:29:27.951Z,20.65
2022-11-28T17:31:57.861Z,20.92
2022-11-28T17:34:31.332Z,24.55
2022-11-28T17:37:02.924Z,22.75
2022-11-28T17:39:29.907Z,20.40
2022-11-28T17:41:58.882Z,23.40
2022-11-28T17:44:32.583Z,20.27
2022-11-28T17:47:02.228Z,18.88
2022-11-28T17:49:30.841Z,17.80
2022-11-28T17:51:58.908Z,16.80
2022-11-28T17:54:27.636Z,16.35
2022-11-28T17:56:55.100Z,16.52
2022-11-28T17:59:24.328Z,16.83
2022-11-28T18:01:51.546Z,30.45
2022-11-28T18:04:23.734Z,17.58
2022-11-28T18:06:50.897Z,17.38
2022-11-28T18:09:17.972Z,18.42
2022-11-28T18:11:46.885Z,26.27
2022-11-28T18:14:14.576Z,25.35
2022-11-28T18:16:44.052Z,18.90
2022-11-28T18:19:11.512Z,17.45
2022-11-28T18:21:39.345Z,18.55
2022-11-28T18:24:06.858Z,21.15
2022-11-28T18:26:34.917Z,19.45
2022-11-28T18:29:01.984Z,16.25
2022-11-28T18:31:30.577Z,17.25
2022-11-28T18:34:05.339Z,17.00
2022-11-28T18:36:37.737Z,18.98
2022-11-28T18:39:09.421Z,17.13
2022-11-28T18:41:36.687Z,19.95
2022-11-28T18:44:05.456Z,21.33
2022-11-28T18:46:34.130Z,18.42
2022-11-28T18:49:01.696Z,21.10
2022-11-28T18:51:38.108Z,19.98
2022-11-28T18:54:06.261Z,22.20
2022-11-28T18:56:35.037Z,22.08
2022-11-28T18:59:02.557Z,24.73
2022-11-28T19:01:33.424Z,23.60
2022-11-28T19:04:07.791Z,22.48
2022-11-28T19:06:38.555Z,23.73
2022-11-28T19:09:09.637Z,20.73
2022-11-28T19:11:37.037Z,21.33
2022-11-28T19:14:04.532Z,20.98
2022-11-28T19:16:37.378Z,23.02
2022-11-28T19:19:06.410Z,26.90
2022-11-28T19:21:36.612Z,20.50
2022-11-28T19:24:05.405Z,18.55
2022-11-28T19:26:35.961Z,21.98
2022-11-28T19:29:04.027Z,36.78
2022-11-28T19:31:34.208Z,20.88
2022-11-28T19:34:15.772Z,16.70
2022-11-28T19:36:54.236Z,32.38
2022-11-28T19:39:24.906Z,13.48
2022-11-28T19:41:54.021Z,37.97
2022-11-28T19:44:24.319Z,49.72
2022-11-28T19:46:53.202Z,46.22
2022-11-28T19:49:24.485Z,24.80
2022-11-28T19:51:52.520Z,37.20
2022-11-28T19:54:21.051Z,29.08
2022-11-28T19:56:49.522Z,25.35
2022-11-28T19:59:17.515Z,20.65
2022-11-28T20:01:44.621Z,31.95
2022-11-28T20:04:13.216Z,36.20
2022-11-28T20:06:40.224Z,28.25
2022-11-28T20:09:12.712Z,25.65
2022-11-28T20:11:43.624Z,38.25
2022-11-28T20:14:15.852Z,29.33
2022-11-28T20:16:43.742Z,39.30
2022-11-28T20:19:13.100Z,26.00
2022-11-28T20:21:40.740Z,26.30
2022-11-28T20:24:10.325Z,47.75
2022-11-28T20:26:43.147Z,38.92
2022-11-28T20:29:14.519Z,25.27
2022-11-28T20:31:46.815Z,26.30
2022-11-28T20:34:18.181Z,24.13
2022-11-28T20:36:46.107Z,24.08
2022-11-28T20:39:13.601Z,26.52
2022-11-28T20:41:40.624Z,20.42
2022-11-28T20:44:07.827Z,22.10
2022-11-28T20:46:35.754Z,22.58
2022-11-28T20:49:06.573Z,23.70
2022-11-28T20:51:34.837Z,23.70
2022-11-28T20:54:05.077Z,22.95
2022-11-28T20:56:57.963Z,23.67
2022-11-28T20:59:23.301Z,23.08
2022-11-28T21:01:50.552Z,24.65
2022-11-28T21:04:19.338Z,24.13
2022-11-28T21:06:49.081Z,24.35
2022-11-28T21:09:18.019Z,26.58
2022-11-28T21:12:01.808Z,24.05
2022-11-28T21:14:29.496Z,24.13
2022-11-28T21:16:57.784Z,24.95
2022-11-28T21:19:24.964Z,22.88
2022-11-28T21:21:52.255Z,24.55
2022-11-28T21:24:19.316Z,23.98
2022-11-28T21:26:51.395Z,26.13
2022-11-28T21:29:20.696Z,24.00
2022-11-28T21:31:47.902Z,22.80
2022-11-28T21:34:16.743Z,22.95
2022-11-28T21:36:44.475Z,22.17
2022-11-28T21:39:19.964Z,23.42
2022-11-28T21:44:14.508Z,23.38
2022-11-28T21:46:41.465Z,22.45
2022-11-28T21:49:08.773Z,23.17
2022-11-28T21:51:39.476Z,23.65
2022-11-28T21:54:06.518Z,25.08
2022-11-28T21:56:33.996Z,21.20
2022-11-28T21:59:01.108Z,23.48
2022-11-28T22:01:28.657Z,24.63
2022-11-28T22:04:01.919Z,21.48
2022-11-28T22:06:29.924Z,22.58
2022-11-28T22:08:57.480Z,24.02
2022-11-28T22:11:25.348Z,23.08
2022-11-28T22:13:53.006Z,24.20
2022-11-28T22:16:29.558Z,22.63
2022-11-28T22:19:00.383Z,23.33
2022-11-28T22:24:14.581Z,22.08
2022-11-28T22:26:41.581Z,19.75
2022-11-28T22:29:08.758Z,20.90
2022-11-28T22:31:35.958Z,21.48
2022-11-28T22:34:03.186Z,23.63
2022-11-28T22:36:31.264Z,21.25
2022-11-28T22:38:58.924Z,22.75
2022-11-28T22:41:29.153Z,24.00
2022-11-28T22:44:01.170Z,22.50
2022-11-28T22:46:30.519Z,24.45
2022-11-28T22:49:02.329Z,25.17
2022-11-28T22:51:31.505Z,21.70
2022-11-28T22:54:01.153Z,22.92
2022-11-28T22:56:32.260Z,23.98
2022-11-28T22:59:00.911Z,21.52
2022-11-28T23:01:31.172Z,21.48
2022-11-28T23:04:00.160Z,22.38
2022-11-28T23:06:31.232Z,21.80
2022-11-28T23:09:00.985Z,22.40
2022-11-28T23:11:32.854Z,22.85
2022-11-28T23:14:01.055Z,22.92
2022-11-28T23:16:35.141Z,24.98
2022-11-28T23:19:10.511Z,23.58
2022-11-28T23:21:41.343Z,22.95
2022-11-28T23:24:17.785Z,21.85
2022-11-28T23:26:47.285Z,21.98
2022-11-28T23:29:14.974Z,21.48
2022-11-28T23:31:43.613Z,22.58
2022-11-28T23:34:11.718Z,21.85
2022-11-28T23:36:43.153Z,21.17
2022-11-28T23:39:18.585Z,20.75
2022-11-28T23:41:46.213Z,22.13
2022-11-28T23:44:15.125Z,22.02
2022-11-28T23:46:43.175Z,20.42
2022-11-28T23:49:11.084Z,23.67
2022-11-28T23:51:40.430Z,22.15
2022-11-28T23:54:08.341Z,20.80
2022-11-28T23:56:37.492Z,22.83
2022-11-28T23:59:07.711Z,22.52
